KTOL/TOL METAR and TAF weather

Enter ICAO airport designator
Station Type Date Time Source
KTOL METAR 2020/06/01 14:52 UTC NOAA

KTOL 011452Z 21005KT 10SM CLR 19/04 A3031 RMK AO2 SLP263 T01890044 58005


Station Type Date Time Source
KTOL Decoded METAR 2020/06/01 14:52 UTC NOAA

TOLEDO EXPRESS AIRPORT, OH, United States (KTOL) 41-35N 083-48W 210M
Jun 01, 2020 - 10:52 AM EDT / 2020.06.01 1452 UTC
Wind: from the SSW (210 degrees) at 6 MPH (5 KT):0
Visibility: 10 mile(s):0
Sky conditions: clear
Temperature: 66.0 F (18.9 C)
Dew Point: 39.9 F (4.4 C)
Relative Humidity: 38%
Pressure (altimeter): 30.31 in. Hg (1026 hPa)
Pressure tendency: 0.01 inches (0.5 hPa) lower than three hours ago
ob: KTOL 011452Z 21005KT 10SM CLR 19/04 A3031 RMK AO2 SLP263 T01890044 58005
cycle: 15

Station Type Date Time Source
KTOL TAF 2020/06/01 12:33 UTC NOAA

TAF KTOL 011130Z 0112/0212 22006KT P6SM SKC
FM012100 24008KT P6SM OVC100
FM020200 20007KT P6SM VCSH BKN080
FM020900 22010KT P6SM BKN060 WS020/25045KT

Example: see airport list